Latest Weather Observations for Browse Island

IDW60801

Issued at 2:35 am WST Wednesday 30 July 2014 (issued every 30 minutes, with the page automatically refreshed every 10 minutes)

About weather observations | Map of weather stations | Latest weather observations for WA | Other Formats
Station Details ID: 200784 Name: BROWSE ISLAND Lat: -14.11 Lon: 123.55 Height: 3.7 m
Data from the previous 72 hours. | See also: Recent months for locations in Western Australia
Date/Time
WST
Temp
°C
App
Temp
°C
Dew
Point
Rel
Hum
%
Delta-T
°C
Wind Press
QNH
hPa
Press
MSL
hPa
Rain
since 9 am
mm
Dir
 
Spd
km/h
Gust
km/h
Spd
kts
Gust
kts
30/02:30am 26.0 - - - - E 13 11 7 6 1014.0 - -
30/02:00am 25.6 - - - - ENE 15 15 8 8 1015.0 1014.9 -
30/01:30am 26.0 - - - - E 17 - 9 - 1015.0 - -
30/01:00am 25.7 - - - - E 15 - 8 - 1015.0 1015.2 -
30/12:30am 26.0 - - - - E 17 - 9 - 1015.0 - -
30/12:00am 25.8 - - - - E 17 19 9 10 1015.0 1015.5 -
 
Date/Time
WST
Temp
°C
App
Temp
°C
Dew
Point
Rel
Hum
%
Delta-T
°C
Wind Press
QNH
hPa
Press
MSL
hPa
Rain
since 9 am
mm
Dir
 
Spd
km/h
Gust
km/h
Spd
kts
Gust
kts
29/11:30pm 26.0 - - - - E 17 - 9 - 1015.0 - -
29/11:00pm 26.0 - - - - E 15 - 8 - 1015.0 1015.6 -
29/10:30pm 26.0 - - - - E 19 - 10 - 1015.0 - -
29/10:00pm 26.3 - - - - E 20 - 11 - 1015.0 1015.6 -
29/09:30pm 26.0 - - - - E 20 - 11 - 1015.0 - -
29/09:00pm 26.4 - - - - E 17 - 9 - 1015.0 1015.4 -
29/08:30pm 26.0 - - - - E 15 - 8 - 1015.0 - -
29/08:00pm 26.2 - - - - E 15 - 8 - 1015.0 1015.2 -
29/07:30pm 26.0 - - - - E 15 - 8 - 1015.0 - -
29/07:00pm 26.3 - - - - E 13 - 7 - 1014.0 1014.5 -
29/06:30pm 26.0 - - - - E 13 - 7 - 1014.0 - -
29/06:00pm 26.6 - - - - E 13 - 7 - 1014.0 1014.0 -
29/05:30pm 27.0 - - - - E 19 - 10 - 1013.0 - -
29/05:00pm 27.3 - - - - E 19 - 10 - 1013.0 1013.7 -
29/04:30pm 28.0 - - - - E 20 - 11 - 1013.0 - -
29/04:00pm 27.7 - - - - E 20 - 11 - 1013.0 1013.1 -
29/03:30pm 28.0 - - - - E 22 - 12 - 1013.0 - -
29/03:00pm 27.9 - - - - E 22 - 12 - 1013.0 1013.0 -
29/02:30pm 28.0 - - - - E 24 - 13 - 1013.0 - -
29/02:00pm 28.0 - - - - ESE 20 - 11 - 1013.0 1013.3 -
29/01:30pm 28.0 - - - - SE 22 - 12 - 1013.0 - -
29/01:00pm 27.4 - - - - SE 20 - 11 - 1014.0 1013.9 -
29/12:30pm 28.0 - - - - SE 20 - 11 - 1014.0 - -
29/12:00pm 27.2 - - - - ESE 20 - 11 - 1015.0 1014.9 -
29/11:30am 28.0 - - - - ESE 19 - 10 - 1015.0 - -
29/11:00am 27.7 - - - - ESE 20 - 11 - 1015.0 1015.5 -
29/10:30am 27.0 - - - - ESE 20 - 11 - 1015.0 - -
29/10:00am 27.3 - - - - SE 17 - 9 - 1016.0 1015.9 -
29/09:30am 27.0 - - - - SE 15 - 8 - 1016.0 - -
29/09:00am 26.7 - - - - SSE 17 - 9 - 1016.0 1016.2 -
29/08:30am 27.0 - - - - SE 17 - 9 - 1016.0 - -
29/08:00am 26.7 - - - - SE 17 - 9 - 1016.0 1016.0 -
29/07:30am 26.0 - - - - ESE 17 - 9 - 1015.0 - -
29/07:00am 26.1 - - - - ESE 15 - 8 - 1015.0 1015.5 -
29/06:30am 26.0 - - - - ESE 15 - 8 - 1015.0 - -
29/06:00am 26.2 - - - - SE 15 17 8 9 1015.0 1014.9 -
29/05:30am 26.0 - - - - SE 15 - 8 - 1014.0 - -
29/05:00am 26.2 - - - - SE 15 - 8 - 1014.0 1014.6 -
29/04:30am 26.0 - - - - ESE 15 - 8 - 1014.0 - -
29/04:00am 26.2 - - - - ESE 13 - 7 - 1014.0 1014.6 -
29/03:30am 26.0 - - - - ESE 11 - 6 - 1014.0 - -
29/03:00am 26.4 - - - - SE 11 - 6 - 1014.0 1014.6 -
29/02:30am 26.0 - - - - SE 13 - 7 - 1014.0 - -
29/02:00am 26.3 - - - - E 11 - 6 - 1014.0 1014.6 -
29/01:30am 26.0 - - - - E 13 - 7 - 1014.0 - -
29/01:00am 26.2 - - - - ESE 15 - 8 - 1015.0 1015.1 -
29/12:30am 26.0 - - - - ESE 13 - 7 - 1015.0 - -
29/12:00am 26.3 - - - - ESE 11 - 6 - 1015.0 1015.3 -
 
Date/Time
WST
Temp
°C
App
Temp
°C
Dew
Point
Rel
Hum
%
Delta-T
°C
Wind Press
QNH
hPa
Press
MSL
hPa
Rain
since 9 am
mm
Dir
 
Spd
km/h
Gust
km/h
Spd
kts
Gust
kts
28/11:30pm 26.0 - - - - ESE 11 - 6 - 1015.0 - -
28/11:00pm 26.4 - - - - ESE 13 - 7 - 1015.0 1015.5 -
28/10:30pm 26.0 - - - - ESE 11 - 6 - 1015.0 - -
28/10:00pm 26.3 - - - - ESE 15 - 8 - 1015.0 1015.5 -
28/09:30pm 26.0 - - - - ESE 15 - 8 - 1015.0 - -
28/09:00pm 26.4 - - - - E 13 - 7 - 1015.0 1015.4 -
28/08:30pm 26.0 - - - - ESE 11 - 6 - 1015.0 - -
28/08:00pm 26.5 - - - - SE 13 - 7 - 1015.0 1015.1 -
28/07:30pm 26.0 - - - - SSE 13 - 7 - 1015.0 - -
28/07:00pm 26.1 - - - - SSE 13 - 7 - 1014.0 1014.5 -
28/06:30pm 26.0 - - - - S 13 - 7 - 1014.0 - -
28/06:00pm 26.3 - - - - SSE 11 - 6 - 1014.0 1014.0 -
28/05:30pm 26.0 - - - - SSE 11 - 6 - 1013.0 - -
28/05:00pm 26.3 - - - - SE 9 - 5 - 1013.0 1013.7 -
28/04:30pm 27.0 - - - - SSE 11 - 6 - 1013.0 - -
28/04:00pm 26.6 - - - - SE 11 - 6 - 1013.0 1013.3 -
28/03:30pm 27.0 - - - - SSE 9 - 5 - 1013.0 - -
28/03:00pm 26.8 - - - - SE 11 - 6 - 1013.0 1013.3 -
28/02:30pm 27.0 - - - - SE 11 - 6 - 1013.0 - -
28/02:00pm 27.5 - - - - SE 13 - 7 - 1014.0 1013.9 -
28/01:30pm 28.0 - - - - SE 13 - 7 - 1014.0 - -
28/01:00pm 27.8 - - - - ESE 13 - 7 - 1014.0 1014.6 -
28/12:30pm 27.0 - - - - SE 13 - 7 - 1015.0 - -
28/12:00pm 27.1 - - - - ESE 13 - 7 - 1015.0 1015.4 -
28/11:30am 28.0 - - - - ESE 13 - 7 - 1016.0 - -
28/11:00am 27.7 - - - - SE 13 - 7 - 1016.0 1016.2 -
28/10:30am 27.0 - - - - SE 13 - 7 - 1016.0 - -
28/10:00am 27.1 - - - - ESE 13 - 7 - 1016.0 1016.8 -
28/09:30am 27.0 - - - - SSE 9 - 5 - 1016.0 - -
28/09:00am 27.0 - - - - SE 11 - 6 - 1016.0 1016.8 -
28/08:30am 27.0 - - - - ESE 11 - 6 - 1016.0 - -
28/08:00am 26.7 - - - - ESE 13 - 7 - 1016.0 1016.5 -
28/07:30am 26.0 - - - - ESE 13 - 7 - 1016.0 - -
28/07:00am 26.0 - - - - ESE 13 - 7 - 1016.0 1016.0 -
28/06:30am 26.0 - - - - SE 15 - 8 - 1016.0 - -
28/06:00am 25.8 - - - - SE 13 - 7 - 1015.0 1015.8 -
28/05:30am 26.0 - - - - SSE 11 - 6 - 1015.0 - -
28/05:00am 25.6 - - - - SSE 13 - 7 - 1015.0 1015.4 -
28/04:30am 26.0 - - - - SSE 13 - 7 - 1015.0 - -
28/04:00am 25.8 - - - - SE 13 - 7 - 1014.0 1014.8 -
28/03:30am 26.0 - - - - SE 13 - 7 - 1014.0 - -
28/03:00am 25.7 - - - - SE 9 - 5 - 1014.0 1014.7 -
28/02:30am 26.0 - - - - SE 9 - 5 - 1014.0 - -
28/02:00am 25.7 - - - - SE 7 - 4 - 1014.0 1014.8 -
28/01:30am 26.0 - - - - ESE 9 - 5 - 1015.0 - -
28/01:00am 25.9 - - - - ESE 9 - 5 - 1015.0 1015.2 -
28/12:30am 26.0 - - - - E 11 - 6 - 1015.0 - -
28/12:00am 25.8 - - - - E 13 - 7 - 1015.0 1015.6 -
 
Date/Time
WST
Temp
°C
App
Temp
°C
Dew
Point
Rel
Hum
%
Delta-T
°C
Wind Press
QNH
hPa
Press
MSL
hPa
Rain
since 9 am
mm
Dir
 
Spd
km/h
Gust
km/h
Spd
kts
Gust
kts
27/11:30pm 26.0 - - - - E 11 - 6 - 1015.0 - -
27/11:00pm 25.9 - - - - E 13 - 7 - 1016.0 1015.9 -
27/10:30pm 26.0 - - - - E 15 - 8 - 1016.0 - -
27/10:00pm 26.2 - - - - E 17 - 9 - 1016.0 1016.1 -
27/09:30pm 26.0 - - - - E 15 - 8 - 1016.0 - -
27/09:00pm 26.3 - - - - E 13 - 7 - 1016.0 1016.1 -
27/08:30pm 26.0 - - - - E 15 - 8 - 1016.0 - -
27/08:00pm 26.2 - - - - E 13 - 7 - 1016.0 1015.9 -
27/07:30pm 26.0 - - - - E 15 - 8 - 1015.0 - -
27/07:00pm 26.4 - - - - E 15 - 8 - 1015.0 1015.3 -
27/06:30pm 26.0 - - - - ESE 17 - 9 - 1015.0 - -
27/06:00pm 26.6 - - - - ESE 20 - 11 - 1015.0 1015.1 -
27/05:30pm 26.0 - - - - ESE 20 - 11 - 1014.0 - -
27/05:00pm 26.5 - - - - SE 19 - 10 - 1014.0 1014.4 -
27/04:30pm 27.0 - - - - SSE 19 - 10 - 1014.0 - -
27/04:00pm 26.8 - - - - SSE 19 - 10 - 1014.0 1014.0 -
27/03:30pm 27.0 - - - - SE 20 - 11 - 1014.0 - -
27/03:00pm 27.4 - - - - SE 20 - 11 - 1014.0 1014.0 -
27/02:30pm 27.0 - - - - SSE 20 - 11 - 1014.0 - -
27/02:00pm 27.0 - - - - SSE 20 - 11 - 1014.0 1014.1 -
27/01:30pm 27.0 - - - - SE 22 - 12 - 1014.0 - -
27/01:00pm 27.1 - - - - SSE 22 - 12 - 1015.0 1015.0 -
27/12:30pm 27.0 - - - - SSE 20 - 11 - 1015.0 - -
27/12:00pm 27.6 - - - - SSE 22 - 12 - 1015.0 1015.8 -
27/11:30am 27.0 - - - - S 24 - 13 - 1016.0 - -
27/11:00am 26.6 - - - - S 26 - 14 - 1016.0 1016.2 -
27/10:30am 27.0 - - - - S 28 - 15 - 1016.0 - -
27/10:00am 26.4 - - - - S 28 - 15 - 1016.0 1016.5 -
27/09:30am 26.0 - - - - S 28 - 15 - 1016.0 - -
27/09:00am 26.1 - - - - S 24 - 13 - 1017.0 1016.9 -
27/08:30am 26.0 - - - - S 20 - 11 - 1017.0 - -
27/08:00am 25.9 - - - - S 19 - 10 - 1017.0 1017.1 -
27/07:30am 26.0 - - - - S 22 - 12 - 1016.0 - -
27/07:00am 25.7 - - - - SE 17 - 9 - 1016.0 1016.8 -
27/06:30am 26.0 - - - - SE 17 - 9 - 1016.0 - -
27/06:00am 25.6 - - - - SE 15 - 8 - 1016.0 1016.4 -
27/05:30am 25.0 - - - - SE 15 - 8 - 1016.0 - -
27/05:00am 25.7 - - - - SE 15 - 8 - 1016.0 1016.4 -
27/04:30am 26.0 - - - - SE 13 - 7 - 1016.0 - -
27/04:00am 25.6 - - - - ESE 9 - 5 - 1016.0 1016.1 -
27/03:30am 26.0 - - - - ESE 13 - 7 - 1016.0 - -
27/03:00am 25.6 - - - - E 11 - 6 - 1016.0 1016.1 -

Other Formats:

Comma delimited format used in spreadsheet applications
http://www.bom.gov.au/fwo/IDW60801/IDW60801.94103.axf

JavaScript Object Notation format (JSON) in row-major order
http://www.bom.gov.au/fwo/IDW60801/IDW60801.94103.json